Time;durP1;ratioP1;P1;durP2;ratioP2;P2;SDS_P1;SDS_P2;PMS_P1;PMS_P2;Temp;Humidity;BMP_temperature;BMP_pressure;BME280_temperature;BME280_humidity;BME280_pressure;Samples;Min_cycle;Max_cycle;Signal;HPM_P1;HPM_P2
2023/07/14 00:01:35;;;;;;;28.00;15.20;;;;;;;27.33;66.63;101042.10;107112;1265;25360;-49
2023/07/14 00:04:02;;;;;;;31.00;15.70;;;;;;;27.33;66.73;101049.91;107176;1265;25438;-48
2023/07/14 00:06:29;;;;;;;24.60;15.10;;;;;;;27.34;66.74;101034.59;106594;1271;22524;-49
2023/07/14 00:08:56;;;;;;;49.10;17.30;;;;;;;27.33;66.71;101019.10;107087;1259;25363;-49
2023/07/14 00:11:24;;;;;;;52.90;20.40;;;;;;;27.34;66.75;100999.12;106898;1259;25312;-49
2023/07/14 00:13:53;;;;;;;60.10;22.90;;;;;;;27.34;66.73;100977.24;107182;1259;25363;-49
2023/07/14 00:16:22;;;;;;;67.20;23.70;;;;;;;27.33;66.72;100954.43;107165;1256;24795;-49
2023/07/14 00:18:49;;;;;;;50.00;21.00;;;;;;;27.32;66.67;100935.45;107156;1262;22543;-49
2023/07/14 00:21:22;;;;;;;26.40;13.40;;;;;;;27.32;66.63;100946.39;106915;1257;24246;-49
2023/07/14 00:23:50;;;;;;;25.00;11.00;;;;;;;27.30;66.58;100961.17;107205;1268;24238;-49
2023/07/14 00:26:19;;;;;;;19.40;10.20;;;;;;;27.28;66.26;100966.85;107107;1252;25412;-49
2023/07/14 00:28:49;;;;;;;23.20;9.90;;;;;;;27.29;66.00;100981.39;106885;1274;25067;-49
2023/07/14 00:31:19;;;;;;;15.50;9.80;;;;;;;27.25;65.79;101002.73;107150;1267;25211;-49
2023/07/14 00:33:49;;;;;;;19.60;10.10;;;;;;;27.23;65.82;101060.05;107141;1262;25325;-49
2023/07/14 00:36:21;;;;;;;14.00;9.80;;;;;;;27.21;65.93;101073.23;107108;1256;22532;-50
2023/07/14 00:38:48;;;;;;;18.40;9.90;;;;;;;27.19;65.82;101084.81;107237;1262;25311;-49
2023/07/14 00:41:18;;;;;;;16.90;9.90;;;;;;;27.20;65.86;101096.52;107141;1256;24203;-49
2023/07/14 00:43:49;;;;;;;15.70;9.90;;;;;;;27.20;65.77;101116.85;107165;1262;25360;-50
2023/07/14 00:46:36;;;;;;;13.50;10.10;;;;;;;27.23;65.53;101138.68;106955;1266;25388;-50
2023/07/14 00:49:07;;;;;;;17.90;10.90;;;;;;;27.21;65.65;101118.88;107123;1263;25344;-51
2023/07/14 00:51:35;;;;;;;13.20;9.60;;;;;;;27.21;65.61;101106.74;107054;1264;24323;-51
2023/07/14 00:54:03;;;;;;;15.80;9.00;;;;;;;27.22;65.67;101100.27;106682;1259;22529;-51
2023/07/14 00:56:40;;;;;;;12.70;8.70;;;;;;;27.23;65.33;101100.20;107042;1263;25336;-50
2023/07/14 00:59:12;;;;;;;11.30;6.90;;;;;;;27.24;64.76;101089.55;106843;1256;25424;-51
2023/07/14 01:02:10;;;;;;;10.10;6.30;;;;;;;27.23;63.74;101082.35;107038;1262;22957;-51
2023/07/14 01:04:41;;;;;;;6.90;5.50;;;;;;;27.21;62.68;101084.17;107061;1269;25335;-49
2023/07/14 01:07:08;;;;;;;9.90;6.00;;;;;;;27.23;61.93;101080.41;106801;1267;22539;-49
2023/07/14 01:09:35;;;;;;;8.70;5.80;;;;;;;27.23;61.46;101081.31;107070;1262;25481;-49
2023/07/14 01:12:05;;;;;;;11.20;5.30;;;;;;;27.24;60.72;101078.20;106918;1265;25393;-49
2023/07/14 01:14:36;;;;;;;8.70;5.50;;;;;;;27.25;60.37;101074.89;106817;1269;25357;-49
2023/07/14 01:17:04;;;;;;;12.30;5.40;;;;;;;27.26;60.02;101074.09;107119;1256;22769;-49
2023/07/14 01:19:41;;;;;;;10.20;5.30;;;;;;;27.26;59.50;101082.60;107063;1262;22536;-49
2023/07/14 01:22:34;;;;;;;9.40;5.10;;;;;;;27.27;59.00;101075.02;107084;1262;25354;-49
2023/07/14 01:25:35;;;;;;;9.10;4.60;;;;;;;27.28;58.76;101070.19;106946;1257;25520;-49
2023/07/14 01:28:09;;;;;;;;;;;;;;;27.28;58.37;101070.67;106891;1269;25377;-49
2023/07/14 01:30:37;;;;;;;6.00;4.60;;;;;;;27.30;58.00;101076.10;106942;1267;25332;-49
2023/07/14 01:33:16;;;;;;;7.80;3.90;;;;;;;27.29;57.92;101078.86;106819;1267;25347;-50
2023/07/14 01:35:45;;;;;;;6.40;3.80;;;;;;;27.29;57.75;101069.68;107142;1265;24119;-49
2023/07/14 01:38:12;;;;;;;5.90;4.00;;;;;;;27.29;57.49;101069.86;107062;1260;25437;-49
2023/07/14 01:40:40;;;;;;;8.00;3.50;;;;;;;27.30;57.25;101071.75;107014;1265;25321;-49
2023/07/14 01:43:09;;;;;;;11.50;4.00;;;;;;;27.30;57.10;101072.51;106881;1265;25521;-49
2023/07/14 01:45:56;;;;;;;5.50;3.60;;;;;;;27.30;56.99;101078.16;106688;1269;25332;-49
2023/07/14 01:48:27;;;;;;;7.40;3.70;;;;;;;27.31;56.65;101082.89;107097;1265;24230;-49
2023/07/14 01:50:59;;;;;;;6.00;3.30;;;;;;;27.32;56.39;101092.09;106972;1266;25510;-49
2023/07/14 01:53:28;;;;;;;7.10;3.60;;;;;;;27.32;56.31;101098.68;107158;1252;25399;-49
2023/07/14 01:55:57;;;;;;;5.00;3.40;;;;;;;27.34;56.00;101096.92;106996;1262;24379;-50
2023/07/14 01:58:28;;;;;;;7.60;3.60;;;;;;;27.32;55.76;101098.84;107076;1265;25337;-49
2023/07/14 02:00:55;;;;;;;8.40;3.10;;;;;;;27.31;55.55;101093.73;106978;1265;22526;-49
2023/07/14 02:03:43;;;;;;;7.40;3.90;;;;;;;27.32;55.38;101088.70;107011;1265;25360;-49
2023/07/14 02:06:11;;;;;;;5.70;3.60;;;;;;;27.32;55.18;101087.09;106969;1265;22530;-50
2023/07/14 02:08:44;;;;;;;6.60;3.40;;;;;;;27.32;55.22;101095.44;107037;1265;22772;-50
2023/07/14 02:11:16;;;;;;;5.40;3.10;;;;;;;27.32;55.00;101101.15;107169;1260;25562;-50
2023/07/14 02:13:44;;;;;;;7.30;4.10;;;;;;;27.32;54.95;101099.02;106845;1268;22534;-50
2023/07/14 02:16:14;;;;;;;5.00;3.50;;;;;;;27.33;54.92;101100.76;106847;1260;25482;-50
2023/07/14 02:18:42;;;;;;;5.20;3.60;;;;;;;27.34;54.92;101092.48;107216;1265;24201;-49
2023/07/14 02:21:10;;;;;;;6.20;3.40;;;;;;;27.34;54.78;101083.39;106939;1269;25343;-49
2023/07/14 02:23:39;;;;;;;6.80;3.60;;;;;;;27.33;54.87;101074.87;106943;1272;24263;-50
2023/07/14 02:26:32;;;;;;;5.40;3.40;;;;;;;27.34;54.78;101083.23;107064;1263;25315;-49
2023/07/14 02:28:59;;;;;;;7.00;3.90;;;;;;;27.32;54.82;101081.91;107146;1262;25360;-49
2023/07/14 02:31:31;;;;;;;8.70;4.40;;;;;;;27.33;54.90;101089.51;106987;1259;25332;-49
2023/07/14 02:33:59;;;;;;;6.00;3.70;;;;;;;27.33;55.25;101102.33;106938;1266;25399;-50
2023/07/14 02:36:39;;;;;;;6.10;3.40;;;;;;;27.32;55.33;101118.23;106986;1256;26690;-50
2023/07/14 02:39:06;;;;;;;9.40;3.70;;;;;;;27.32;55.38;101119.48;107192;1265;25332;-50
2023/07/14 02:41:38;;;;;;;7.70;4.10;;;;;;;27.32;55.53;101107.96;106714;1254;22758;-50
2023/07/14 02:44:06;;;;;;;6.40;4.90;;;;;;;27.32;55.63;101118.45;106870;1263;22746;-49
2023/07/14 02:46:58;;;;;;;6.50;4.60;;;;;;;27.32;55.84;101135.21;106729;1261;25355;-50
2023/07/14 02:49:26;;;;;;;7.20;5.10;;;;;;;27.31;55.95;101123.87;106962;1266;25315;-50
2023/07/14 02:51:55;;;;;;;6.00;5.20;;;;;;;27.32;56.17;101115.64;106909;1266;22642;-50
2023/07/14 02:54:24;;;;;;;8.20;5.20;;;;;;;27.32;56.37;101116.81;106928;1266;25385;-49
2023/07/14 02:56:52;;;;;;;8.10;5.30;;;;;;;27.32;56.56;101122.21;106906;1266;25353;-50
2023/07/14 02:59:19;;;;;;;8.10;5.40;;;;;;;27.32;56.92;101131.27;106864;1269;25349;-49
2023/07/14 03:01:47;;;;;;;8.00;5.80;;;;;;;27.32;56.98;101132.33;106693;1261;24162;-50
2023/07/14 03:04:15;;;;;;;7.60;5.60;;;;;;;27.33;57.19;101127.98;106737;1269;25513;-50
2023/07/14 03:06:42;;;;;;;8.00;5.90;;;;;;;27.34;57.46;101119.55;106961;1266;25443;-49
2023/07/14 03:09:13;;;;;;;18.30;6.60;;;;;;;27.35;57.67;101113.18;106905;1266;25356;-50
2023/07/14 03:11:40;;;;;;;11.10;6.70;;;;;;;27.36;57.69;101103.52;106770;1267;22530;-50
2023/07/14 03:14:08;;;;;;;10.00;6.30;;;;;;;27.36;57.97;101106.89;106939;1257;25447;-50
2023/07/14 03:16:36;;;;;;;11.40;6.50;;;;;;;27.38;58.10;101098.54;106869;1273;25358;-50
2023/07/14 03:19:05;;;;;;;8.40;6.60;;;;;;;27.41;58.37;101074.78;106794;1261;25322;-50
2023/07/14 03:21:32;;;;;;;10.40;6.80;;;;;;;27.43;58.48;101066.98;107130;1269;25315;-50
2023/07/14 03:23:59;;;;;;;11.00;6.60;;;;;;;27.45;58.41;101059.98;107260;1260;25314;-49
2023/07/14 03:26:27;;;;;;;8.90;7.80;;;;;;;27.48;58.50;101043.86;107105;1253;25412;-50
2023/07/14 03:28:54;;;;;;;10.70;7.00;;;;;;;27.52;58.43;101051.39;107132;1269;25335;-50
2023/07/14 03:31:21;;;;;;;9.20;7.30;;;;;;;27.54;58.62;101059.39;107151;1268;25482;-50
2023/07/14 03:33:49;;;;;;;11.70;7.40;;;;;;;27.56;58.75;101065.29;107145;1265;25389;-49
2023/07/14 03:36:21;;;;;;;7.80;7.00;;;;;;;27.60;58.97;101065.66;107190;1263;25412;-50
2023/07/14 03:38:48;;;;;;;11.30;7.60;;;;;;;27.63;59.16;101075.67;106875;1266;25301;-50
2023/07/14 03:41:15;;;;;;;8.30;7.00;;;;;;;27.71;59.29;101080.90;107001;1272;25249;-49
2023/07/14 03:43:43;;;;;;;9.20;6.60;;;;;;;27.82;59.30;101089.84;106959;1256;25347;-50
2023/07/14 03:46:10;;;;;;;8.30;6.70;;;;;;;28.01;59.11;101100.33;107061;1257;25343;-50
2023/07/14 03:48:39;;;;;;;9.80;7.40;;;;;;;28.26;58.61;101107.66;107169;1260;22531;-50
2023/07/14 03:51:07;;;;;;;7.90;6.70;;;;;;;28.60;58.00;101109.87;107151;1268;25315;-50
2023/07/14 03:53:35;;;;;;;12.00;7.40;;;;;;;29.04;57.13;101105.80;107119;1255;24481;-50
2023/07/14 03:56:03;;;;;;;8.50;6.70;;;;;;;29.53;55.92;101115.25;106825;1267;25353;-50
2023/07/14 03:58:30;;;;;;;8.20;6.80;;;;;;;30.05;54.46;101111.85;106892;1269;25477;-51
2023/07/14 04:01:01;;;;;;;10.80;6.70;;;;;;;30.56;52.92;101113.88;107026;1259;25357;-49
2023/07/14 04:03:29;;;;;;;10.30;6.40;;;;;;;31.01;51.67;101115.40;107005;1255;25360;-49
2023/07/14 04:05:56;;;;;;;7.90;6.50;;;;;;;31.35;50.43;101098.44;107179;1262;25325;-50
2023/07/14 04:08:36;;;;;;;10.80;6.60;;;;;;;31.54;49.25;101092.67;107145;1260;25471;-49
2023/07/14 04:11:03;;;;;;;10.00;6.10;;;;;;;31.60;48.80;101098.73;107164;1265;25531;-50
2023/07/14 04:13:32;;;;;;;10.60;6.60;;;;;;;31.58;48.68;101102.34;106767;1273;25342;-49
2023/07/14 04:15:59;;;;;;;7.60;6.70;;;;;;;31.49;48.55;101103.57;106875;1267;23878;-50
2023/07/14 04:18:26;;;;;;;10.20;6.90;;;;;;;31.34;48.87;101110.18;107091;1263;23485;-49
2023/07/14 04:20:54;;;;;;;9.90;6.60;;;;;;;31.19;48.96;101113.17;107069;1263;25363;-49
2023/07/14 04:23:21;;;;;;;8.60;6.80;;;;;;;31.02;49.19;101123.92;107051;1265;22651;-50
2023/07/14 04:25:49;;;;;;;7.70;6.20;;;;;;;30.84;49.38;101126.64;107087;1265;25325;-49
2023/07/14 04:28:16;;;;;;;10.40;6.50;;;;;;;30.67;49.67;101139.70;106809;1267;25343;-49
2023/07/14 04:30:54;;;;;;;12.90;6.40;;;;;;;30.48;49.99;101149.80;107071;1254;25324;-49
2023/07/14 04:33:24;;;;;;;7.70;6.30;;;;;;;30.30;50.39;101160.49;106957;1266;23337;-49
2023/07/14 04:35:52;;;;;;;9.40;6.30;;;;;;;30.14;50.82;101163.83;107077;1260;25577;-50
2023/07/14 04:38:19;;;;;;;9.80;6.20;;;;;;;30.01;51.12;101161.38;106994;1265;22537;-50
2023/07/14 04:40:48;;;;;;;8.20;6.60;;;;;;;29.89;51.57;101152.54;107052;1263;26969;-54
2023/07/14 04:43:15;;;;;;;9.50;6.90;;;;;;;29.80;51.94;101146.64;106996;1263;25332;-50
2023/07/14 04:45:43;;;;;;;7.80;6.10;;;;;;;29.72;51.92;101144.89;107071;1265;25517;-50
2023/07/14 04:48:13;;;;;;;9.60;5.80;;;;;;;29.65;51.97;101130.50;106598;1256;24347;-50
2023/07/14 04:50:40;;;;;;;9.30;6.10;;;;;;;29.61;52.19;101126.48;106795;1266;23219;-49
2023/07/14 04:53:07;;;;;;;7.40;5.70;;;;;;;29.57;51.96;101129.90;106937;1274;22526;-51
2023/07/14 04:55:36;;;;;;;6.30;5.40;;;;;;;29.53;51.85;101126.19;106580;1276;22648;-50
2023/07/14 04:58:04;;;;;;;10.60;5.70;;;;;;;29.51;51.88;101113.18;106614;1269;25293;-49
2023/07/14 05:00:32;;;;;;;10.10;5.30;;;;;;;29.50;51.69;101118.91;106468;1269;22532;-50
2023/07/14 05:02:59;;;;;;;7.60;5.00;;;;;;;29.48;51.60;101114.45;106602;1269;25537;-49
2023/07/14 05:05:26;;;;;;;10.10;5.50;;;;;;;29.47;51.09;101109.94;106746;1262;25492;-49
2023/07/14 05:07:55;;;;;;;9.60;5.00;;;;;;;29.45;51.05;101100.84;106691;1271;25361;-50
2023/07/14 05:10:23;;;;;;;12.60;4.70;;;;;;;29.46;50.94;101095.41;106495;1274;25412;-49
2023/07/14 05:12:52;;;;;;;8.80;5.10;;;;;;;29.49;50.89;101091.48;106700;1268;25413;-50
2023/07/14 05:15:20;;;;;;;10.20;4.90;;;;;;;29.58;50.82;101087.42;106448;1274;25281;-49
2023/07/14 05:17:47;;;;;;;7.60;4.90;;;;;;;29.72;50.75;101092.86;106458;1272;25353;-50
2023/07/14 05:20:15;;;;;;;7.80;4.10;;;;;;;29.93;50.16;101096.40;106733;1260;25359;-50
2023/07/14 05:22:45;;;;;;;8.40;4.70;;;;;;;30.16;49.97;101096.58;106661;1265;22535;-50
2023/07/14 05:25:13;;;;;;;5.90;4.50;;;;;;;30.40;49.19;101104.55;106728;1269;25278;-50
2023/07/14 05:27:43;;;;;;;7.90;5.00;;;;;;;30.70;48.84;101110.19;106937;1259;25323;-50
2023/07/14 05:30:15;;;;;;;7.50;4.50;;;;;;;31.05;47.89;101111.45;106894;1268;25402;-50
2023/07/14 05:32:43;;;;;;;9.70;4.30;;;;;;;31.37;47.04;101107.91;106788;1269;25324;-50
2023/07/14 05:35:11;;;;;;;5.90;4.20;;;;;;;31.61;45.99;101101.31;107054;1254;25382;-49
2023/07/14 05:37:38;;;;;;;7.10;3.80;;;;;;;31.76;45.16;101090.53;107117;1262;23866;-50
2023/07/14 05:40:07;;;;;;;5.70;3.80;;;;;;;31.83;44.76;101088.33;107179;1266;25447;-50
2023/07/14 05:42:34;;;;;;;4.40;3.40;;;;;;;31.89;44.74;101086.23;107101;1256;25321;-50
2023/07/14 05:45:03;;;;;;;5.00;3.40;;;;;;;31.94;44.49;101087.73;107055;1263;25207;-50
2023/07/14 05:47:31;;;;;;;6.10;4.10;;;;;;;31.87;44.77;101084.69;106912;1270;25330;-50
2023/07/14 05:49:58;;;;;;;5.10;3.20;;;;;;;31.75;44.09;101092.08;106889;1272;25507;-50
2023/07/14 05:52:25;;;;;;;4.40;3.10;;;;;;;31.64;43.63;101093.59;106927;1272;25340;-49
2023/07/14 05:54:52;;;;;;;5.30;3.00;;;;;;;31.54;43.38;101091.09;107092;1265;25482;-49
2023/07/14 05:57:19;;;;;;;4.00;2.60;;;;;;;31.47;43.54;101098.95;107064;1257;25350;-50
2023/07/14 05:59:46;;;;;;;4.00;2.30;;;;;;;31.34;44.05;101102.88;107054;1270;25343;-50
2023/07/14 06:02:14;;;;;;;4.80;2.80;;;;;;;31.24;44.20;101101.98;107050;1267;25475;-50
2023/07/14 06:04:41;;;;;;;6.30;2.60;;;;;;;31.10;44.47;101101.77;107041;1266;25395;-49
2023/07/14 06:07:09;;;;;;;3.40;2.40;;;;;;;30.94;44.57;101100.59;107101;1262;24238;-50
2023/07/14 06:09:37;;;;;;;3.80;2.70;;;;;;;30.74;45.16;101102.25;107100;1265;25438;-49
2023/07/14 06:12:05;;;;;;;4.60;3.00;;;;;;;30.56;45.58;101109.73;107031;1260;25328;-49
2023/07/14 06:14:35;;;;;;;3.50;2.80;;;;;;;30.46;46.06;101109.16;106900;1265;22531;-49
2023/07/14 06:17:03;;;;;;;4.20;2.40;;;;;;;30.34;45.72;101112.84;107129;1260;23299;-49
2023/07/14 06:19:30;;;;;;;4.00;2.80;;;;;;;30.33;45.80;101110.50;106795;1260;26576;-49
2023/07/14 06:21:57;;;;;;;4.20;3.30;;;;;;;30.32;47.72;101111.63;107012;1266;25324;-49
2023/07/14 06:24:24;;;;;;;3.40;3.10;;;;;;;30.29;48.30;101109.06;107057;1271;24357;-49
2023/07/14 06:26:51;;;;;;;5.00;3.30;;;;;;;30.27;47.30;101112.82;107161;1271;23597;-48
2023/07/14 06:29:19;;;;;;;3.70;3.00;;;;;;;30.27;47.18;101112.48;106636;1263;25417;-49
2023/07/14 06:31:46;;;;;;;4.20;3.10;;;;;;;30.26;47.91;101119.91;107070;1266;25507;-50
2023/07/14 06:34:13;;;;;;;4.20;3.00;;;;;;;30.28;48.23;101127.06;106858;1270;25337;-50
2023/07/14 06:36:41;;;;;;;6.20;3.10;;;;;;;30.31;48.08;101126.92;107091;1257;25335;-49
2023/07/14 06:39:08;;;;;;;3.60;3.30;;;;;;;30.34;47.76;101132.70;107143;1266;25311;-50
2023/07/14 06:41:36;;;;;;;3.90;3.50;;;;;;;30.35;48.04;101145.19;106891;1266;24257;-49
2023/07/14 06:44:04;;;;;;;5.10;3.90;;;;;;;30.31;48.81;101147.85;107072;1262;25504;-49
2023/07/14 06:46:51;;;;;;;5.10;3.40;;;;;;;30.24;49.26;101160.19;107070;1268;25504;-50
2023/07/14 06:49:18;;;;;;;3.90;3.00;;;;;;;30.19;49.56;101168.42;106943;1262;25344;-49
2023/07/14 06:51:50;;;;;;;4.00;3.60;;;;;;;30.12;49.97;101176.92;107032;1265;25339;-50
2023/07/14 06:54:17;;;;;;;6.00;3.40;;;;;;;30.08;50.12;101172.04;107136;1271;25312;-50
2023/07/14 06:56:44;;;;;;;4.90;3.20;;;;;;;30.05;50.14;101172.58;106873;1267;25331;-50
2023/07/14 06:59:12;;;;;;;3.80;3.10;;;;;;;30.05;50.16;101167.81;107147;1263;25485;-49
2023/07/14 07:01:39;;;;;;;4.60;3.00;;;;;;;30.06;49.24;101167.75;107217;1257;25339;-50
2023/07/14 07:04:07;;;;;;;3.30;3.00;;;;;;;30.06;48.47;101180.02;107127;1256;24207;-50
2023/07/14 07:06:34;;;;;;;3.50;3.20;;;;;;;30.06;48.04;101199.01;107012;1269;25383;-50
2023/07/14 07:09:04;;;;;;;3.70;3.20;;;;;;;30.10;48.57;101209.48;107077;1262;25325;-50
2023/07/14 07:11:34;;;;;;;3.30;2.60;;;;;;;30.14;48.77;101205.94;107100;1265;22542;-49
2023/07/14 07:14:03;;;;;;;3.10;2.70;;;;;;;30.14;48.87;101197.81;107095;1255;25306;-50
2023/07/14 07:16:31;;;;;;;3.00;2.80;;;;;;;30.16;48.20;101193.19;106790;1273;25499;-50
2023/07/14 07:19:03;;;;;;;3.80;3.10;;;;;;;30.19;47.70;101201.17;107181;1262;25520;-50
2023/07/14 07:21:30;;;;;;;3.60;3.20;;;;;;;30.23;48.00;101203.73;107143;1255;25322;-50
2023/07/14 07:23:57;;;;;;;3.80;2.90;;;;;;;30.29;48.20;101207.10;107061;1261;24188;-51
2023/07/14 07:26:25;;;;;;;3.30;3.00;;;;;;;30.35;48.25;101202.27;107092;1270;25407;-50
2023/07/14 07:28:51;;;;;;;3.20;2.90;;;;;;;30.39;48.17;101209.04;107037;1267;25325;-50
2023/07/14 07:31:21;;;;;;;3.60;3.30;;;;;;;30.39;47.98;101217.41;107081;1267;25485;-49
2023/07/14 07:33:48;;;;;;;4.60;3.10;;;;;;;30.42;48.43;101219.14;106793;1273;25414;-50
2023/07/14 07:36:16;;;;;;;3.80;3.30;;;;;;;30.44;48.70;101223.90;107116;1261;25333;-50
2023/07/14 07:38:45;;;;;;;4.10;3.10;;;;;;;30.50;48.44;101231.77;107080;1256;24175;-49
2023/07/14 07:41:17;;;;;;;4.80;3.40;;;;;;;30.54;48.18;101240.31;106869;1256;24308;-50
2023/07/14 07:43:44;;;;;;;4.00;3.60;;;;;;;30.54;48.33;101241.17;107019;1273;22580;-49
2023/07/14 07:46:11;;;;;;;3.10;2.90;;;;;;;30.53;48.43;101238.23;107069;1267;25347;-50
2023/07/14 07:48:40;;;;;;;3.60;3.20;;;;;;;30.53;48.58;101239.52;107127;1267;25331;-49
2023/07/14 07:51:07;;;;;;;3.90;3.40;;;;;;;30.51;48.99;101247.54;106840;1274;25404;-50
2023/07/14 07:53:34;;;;;;;3.70;3.30;;;;;;;30.51;49.49;101240.98;107144;1266;24239;-50
2023/07/14 07:56:01;;;;;;;3.60;2.90;;;;;;;30.53;49.30;101236.11;106925;1264;286676;-50
2023/07/14 07:58:29;;;;;;;3.70;3.00;;;;;;;30.56;49.60;101229.61;107126;1261;25310;-50
2023/07/14 08:00:59;;;;;;;3.40;3.10;;;;;;;30.56;49.47;101227.98;107050;1267;25577;-51
2023/07/14 08:03:26;;;;;;;4.00;3.20;;;;;;;30.56;49.83;101235.52;107127;1263;24360;-50
2023/07/14 08:05:58;;;;;;;3.80;3.40;;;;;;;30.56;50.40;101243.75;106980;1257;25334;-50
2023/07/14 08:08:29;;;;;;;4.10;3.80;;;;;;;30.52;51.06;101249.22;106877;1264;25392;-50
2023/07/14 08:10:56;;;;;;;4.00;3.40;;;;;;;30.49;51.45;101244.38;107117;1257;25350;-50
2023/07/14 08:13:25;;;;;;;3.90;3.50;;;;;;;30.52;51.48;101245.73;107076;1268;23364;-49
2023/07/14 08:15:53;;;;;;;4.10;3.50;;;;;;;30.57;51.38;101250.24;106996;1258;25523;-48
2023/07/14 08:18:21;;;;;;;3.50;3.00;;;;;;;30.62;51.01;101246.20;107096;1263;22746;-49
2023/07/14 08:20:49;;;;;;;4.20;3.80;;;;;;;30.66;50.50;101246.28;107055;1266;25392;-50
2023/07/14 08:23:19;;;;;;;4.10;3.20;;;;;;;30.69;50.09;101249.41;106778;1268;22557;-50
2023/07/14 08:26:00;;;;;;;4.30;3.30;;;;;;;30.73;49.71;101245.44;106973;1254;22531;-51
2023/07/14 08:28:28;;;;;;;4.70;3.50;;;;;;;30.79;49.25;101246.77;107106;1264;22546;-51
2023/07/14 08:30:57;;;;;;;4.10;3.10;;;;;;;30.86;48.71;101246.09;106871;1256;25539;-50
2023/07/14 08:33:25;;;;;;;3.90;3.50;;;;;;;30.92;48.50;101245.68;106661;1267;25386;-50
2023/07/14 08:35:52;;;;;;;4.60;3.50;;;;;;;30.99;48.34;101245.89;106829;1258;25405;-50
2023/07/14 08:38:20;;;;;;;3.20;2.90;;;;;;;31.02;48.64;101240.19;107112;1264;24185;-52
2023/07/14 08:40:53;;;;;;;2.50;2.30;;;;;;;31.03;46.85;101229.86;106889;1260;22642;-52
2023/07/14 08:43:44;;;;;;;3.90;3.60;;;;;;;31.12;45.26;101223.46;107020;1266;22667;-50
2023/07/14 08:46:15;;;;;;;4.40;4.00;;;;;;;31.19;47.97;101218.09;106868;1270;25346;-49
2023/07/14 08:48:52;;;;;;;4.20;3.80;;;;;;;31.13;48.89;101215.46;107111;1258;25548;-50
2023/07/14 08:51:34;;;;;;;4.00;3.70;;;;;;;31.04;48.86;101220.63;107041;1261;24260;-49
2023/07/14 08:54:06;;;;;;;5.60;4.20;;;;;;;30.98;49.47;101213.17;107085;1264;25322;-50
2023/07/14 08:56:34;;;;;;;3.70;3.30;;;;;;;30.96;50.06;101206.45;107069;1256;25447;-49
2023/07/14 08:59:01;;;;;;;7.60;4.20;;;;;;;30.94;49.50;101197.85;107131;1264;25359;-50
2023/07/14 09:01:50;;;;;;;3.60;3.30;;;;;;;30.87;49.33;101194.84;107160;1263;25319;-49
2023/07/14 09:04:27;;;;;;;4.20;3.90;;;;;;;30.80;49.71;101194.41;107137;1257;25350;-50
2023/07/14 09:06:54;;;;;;;6.80;3.80;;;;;;;30.72;49.87;101190.04;106813;1267;25388;-50
2023/07/14 09:09:42;;;;;;;4.10;3.70;;;;;;;30.58;50.00;101180.65;106795;1264;25878;-50
2023/07/14 09:12:20;;;;;;;4.20;3.90;;;;;;;30.43;50.18;101180.16;106852;1260;24212;-49
2023/07/14 09:14:56;;;;;;;6.80;3.80;;;;;;;30.36;50.41;101177.98;106726;1257;25392;-49
2023/07/14 09:17:44;;;;;;;4.30;3.60;;;;;;;30.36;50.40;101178.84;106843;1266;25329;-48
2023/07/14 09:20:50;;;;;;;4.60;4.20;;;;;;;30.35;50.33;101168.62;106724;1270;25465;-49
2023/07/14 09:23:27;;;;;;;5.20;3.80;;;;;;;30.34;50.22;101163.85;107130;1267;25388;-49
2023/07/14 09:26:13;;;;;;;4.70;3.70;;;;;;;30.33;50.20;101160.20;107129;1267;25400;-49
2023/07/14 09:28:44;;;;;;;4.10;3.70;;;;;;;30.34;49.73;101161.24;107117;1257;24227;-49
2023/07/14 09:31:37;;;;;;;3.90;3.50;;;;;;;30.32;49.62;101162.23;106909;1260;22643;-49
2023/07/14 09:34:23;;;;;;;3.70;3.30;;;;;;;30.31;49.57;101157.51;107035;1267;25469;-49
2023/07/14 09:36:51;;;;;;;4.30;3.50;;;;;;;30.33;49.22;101160.89;107085;1263;25322;-49
2023/07/14 09:39:26;;;;;;;3.60;3.30;;;;;;;30.35;49.33;101160.70;106935;1267;24236;-49
2023/07/14 09:41:55;;;;;;;4.50;3.20;;;;;;;30.40;49.35;101159.13;106747;1274;25366;-49
2023/07/14 09:44:23;;;;;;;3.50;3.20;;;;;;;30.39;49.08;101162.33;106896;1264;24205;-50
2023/07/14 09:46:50;;;;;;;3.40;3.10;;;;;;;30.34;48.92;101157.44;107089;1264;25365;-49
2023/07/14 09:49:43;;;;;;;4.10;3.30;;;;;;;30.31;48.77;101159.38;106934;1269;25405;-50
2023/07/14 09:52:12;;;;;;;3.30;3.10;;;;;;;30.34;48.74;101158.70;106359;1277;25411;-49
2023/07/14 09:55:01;;;;;;;3.70;3.40;;;;;;;30.37;48.38;101152.14;106483;1273;25395;-49
2023/07/14 09:57:32;;;;;;;4.50;4.10;;;;;;;30.35;48.93;101152.66;106611;1263;25347;-50
2023/07/14 10:00:28;;;;;;;4.10;3.70;;;;;;;30.32;49.03;101159.79;106712;1270;25481;-49
2023/07/14 10:03:06;;;;;;;6.90;3.90;;;;;;;30.29;49.26;101167.23;106626;1270;22597;-50
2023/07/14 10:05:55;;;;;;;4.20;3.70;;;;;;;30.26;49.93;101174.66;106727;1270;22567;-49
2023/07/14 10:08:33;;;;;;;6.10;4.30;;;;;;;30.22;49.82;101177.75;106687;1273;22601;-49
2023/07/14 10:11:10;;;;;;;4.90;4.50;;;;;;;30.18;49.62;101186.60;106689;1264;22890;-49
2023/07/14 10:13:40;;;;;;;4.30;3.90;;;;;;;30.14;49.36;101188.05;106691;1267;25343;-49
2023/07/14 10:16:14;;;;;;;5.00;3.70;;;;;;;30.11;49.63;101199.36;106647;1270;25482;-49
2023/07/14 10:18:49;;;;;;;3.90;3.60;;;;;;;30.10;49.68;101198.79;106366;1273;24203;-49
2023/07/14 10:21:22;;;;;;;5.30;3.90;;;;;;;30.08;49.35;101201.84;106727;1259;24184;-49
2023/07/14 10:24:00;;;;;;;4.50;4.10;;;;;;;30.07;49.39;101202.52;106403;1261;25457;-49
2023/07/14 10:26:38;;;;;;;4.80;4.40;;;;;;;30.04;49.92;101199.39;106410;1273;24225;-49
2023/07/14 10:29:11;;;;;;;4.70;4.20;;;;;;;30.01;50.16;101197.52;106631;1264;25328;-49
2023/07/14 10:31:44;;;;;;;4.10;3.80;;;;;;;29.99;49.39;101197.52;107089;1263;25397;-49
2023/07/14 10:34:14;;;;;;;6.90;4.20;;;;;;;29.99;49.05;101199.16;107068;1263;25467;-49
2023/07/14 10:36:41;;;;;;;4.90;4.20;;;;;;;30.01;48.60;101195.96;107100;1261;25482;-50
2023/07/14 10:39:35;;;;;;;4.20;3.80;;;;;;;30.02;48.35;101200.25;106906;1269;25369;-49
2023/07/14 10:42:04;;;;;;;4.30;3.90;;;;;;;30.09;48.65;101211.61;107001;1265;24676;-49
2023/07/14 10:44:35;;;;;;;5.00;3.90;;;;;;;30.18;48.21;101221.96;107142;1257;25296;-48
2023/07/14 10:47:13;;;;;;;5.50;4.20;;;;;;;30.27;47.27;101222.89;107096;1257;25439;-49
2023/07/14 10:49:50;;;;;;;4.40;4.00;;;;;;;30.35;47.18;101226.24;107148;1260;22537;-50
2023/07/14 10:52:26;;;;;;;5.50;3.70;;;;;;;30.41;47.12;101226.02;106870;1270;25414;-50
2023/07/14 10:55:04;;;;;;;4.40;4.10;;;;;;;30.44;46.87;101235.75;106782;1268;25412;-50
2023/07/14 10:57:58;;;;;;;4.60;4.20;;;;;;;30.46;47.11;101233.55;107066;1268;25318;-49
2023/07/14 11:00:42;;;;;;;4.50;4.10;;;;;;;30.46;47.19;101236.59;107123;1254;25328;-49
2023/07/14 11:03:21;;;;;;;4.00;3.70;;;;;;;30.50;46.61;101235.19;106796;1268;25325;-50
2023/07/14 11:05:58;;;;;;;4.00;3.70;;;;;;;30.54;47.02;101231.68;107083;1268;22611;-50
2023/07/14 11:08:26;;;;;;;4.40;4.10;;;;;;;30.58;47.24;101239.10;107098;1263;25361;-49
2023/07/14 11:11:32;;;;;;;4.20;3.80;;;;;;;30.62;46.34;101233.85;106707;1270;22544;-49
2023/07/14 11:13:59;;;;;;;4.40;4.00;;;;;;;30.66;45.87;101245.10;106478;1259;23007;-49
2023/07/14 11:16:36;;;;;;;4.20;3.90;;;;;;;30.66;45.72;101250.25;106500;1261;25478;-49
2023/07/14 11:19:08;;;;;;;4.90;4.40;;;;;;;30.70;45.62;101253.48;106593;1264;25481;-49
2023/07/14 11:21:53;;;;;;;4.50;4.10;;;;;;;30.70;46.17;101250.20;106360;1276;25409;-49
2023/07/14 11:24:42;;;;;;;6.10;4.40;;;;;;;30.69;46.41;101253.23;106510;1276;25328;-50
2023/07/14 11:27:12;;;;;;;5.00;4.20;;;;;;;30.68;45.73;101253.46;106473;1272;25616;-49
2023/07/14 11:29:59;;;;;;;4.80;4.40;;;;;;;30.69;45.08;101250.86;106511;1267;22541;-49
2023/07/14 11:33:02;;;;;;;5.10;4.70;;;;;;;30.75;45.49;101250.59;106331;1272;25293;-49
2023/07/14 11:35:34;;;;;;;4.20;3.90;;;;;;;30.85;45.21;101244.96;106489;1265;25482;-49